sensor_id;sensor_type;location;lat;lon;timestamp;P1;durP1;ratioP1;P2;durP2;ratioP2
1765;SDS011;880;52.452;8.656;2023-12-29T00:00:03;8.20;;;7.55;;
1765;SDS011;880;52.452;8.656;2023-12-29T00:02:30;6.10;;;5.60;;
1765;SDS011;880;52.452;8.656;2023-12-29T00:04:58;5.28;;;5.00;;
1765;SDS011;880;52.452;8.656;2023-12-29T00:07:25;8.23;;;7.63;;
1765;SDS011;880;52.452;8.656;2023-12-29T00:09:52;6.35;;;5.95;;
1765;SDS011;880;52.452;8.656;2023-12-29T00:12:20;5.55;;;5.35;;
1765;SDS011;880;52.452;8.656;2023-12-29T00:14:47;8.65;;;8.15;;
1765;SDS011;880;52.452;8.656;2023-12-29T00:17:15;9.27;;;5.35;;
1765;SDS011;880;52.452;8.656;2023-12-29T00:19:42;7.97;;;7.45;;
1765;SDS011;880;52.452;8.656;2023-12-29T00:22:10;8.18;;;7.60;;
1765;SDS011;880;52.452;8.656;2023-12-29T00:24:37;7.63;;;7.32;;
1765;SDS011;880;52.452;8.656;2023-12-29T00:27:06;6.75;;;6.25;;
1765;SDS011;880;52.452;8.656;2023-12-29T00:29:33;7.43;;;6.70;;
1765;SDS011;880;52.452;8.656;2023-12-29T00:32:01;5.95;;;5.65;;
1765;SDS011;880;52.452;8.656;2023-12-29T00:34:30;8.00;;;7.40;;
1765;SDS011;880;52.452;8.656;2023-12-29T00:36:58;6.15;;;5.85;;
1765;SDS011;880;52.452;8.656;2023-12-29T00:39:25;6.60;;;6.07;;
1765;SDS011;880;52.452;8.656;2023-12-29T00:41:57;8.50;;;7.13;;
1765;SDS011;880;52.452;8.656;2023-12-29T00:44:24;7.65;;;7.35;;
1765;SDS011;880;52.452;8.656;2023-12-29T00:46:51;7.82;;;7.50;;
1765;SDS011;880;52.452;8.656;2023-12-29T00:49:18;6.85;;;5.22;;
1765;SDS011;880;52.452;8.656;2023-12-29T00:51:46;6.43;;;5.93;;
1765;SDS011;880;52.452;8.656;2023-12-29T00:54:14;6.25;;;5.80;;
1765;SDS011;880;52.452;8.656;2023-12-29T00:56:47;5.45;;;5.25;;
1765;SDS011;880;52.452;8.656;2023-12-29T00:59:18;9.00;;;8.35;;
1765;SDS011;880;52.452;8.656;2023-12-29T01:01:48;6.20;;;5.80;;
1765;SDS011;880;52.452;8.656;2023-12-29T01:04:16;9.40;;;6.22;;
1765;SDS011;880;52.452;8.656;2023-12-29T01:06:43;6.47;;;6.15;;
1765;SDS011;880;52.452;8.656;2023-12-29T01:09:10;6.20;;;6.00;;
1765;SDS011;880;52.452;8.656;2023-12-29T01:11:38;6.72;;;6.22;;
1765;SDS011;880;52.452;8.656;2023-12-29T01:14:06;5.97;;;5.78;;
1765;SDS011;880;52.452;8.656;2023-12-29T01:16:33;6.97;;;6.65;;
1765;SDS011;880;52.452;8.656;2023-12-29T01:19:00;7.13;;;6.72;;
1765;SDS011;880;52.452;8.656;2023-12-29T01:21:28;7.25;;;6.85;;
1765;SDS011;880;52.452;8.656;2023-12-29T01:24:00;7.88;;;7.32;;
1765;SDS011;880;52.452;8.656;2023-12-29T01:26:30;7.18;;;6.78;;
1765;SDS011;880;52.452;8.656;2023-12-29T01:28:57;6.53;;;6.22;;
1765;SDS011;880;52.452;8.656;2023-12-29T01:31:28;8.90;;;8.35;;
1765;SDS011;880;52.452;8.656;2023-12-29T01:33:57;8.60;;;7.97;;
1765;SDS011;880;52.452;8.656;2023-12-29T01:36:25;8.57;;;7.97;;
1765;SDS011;880;52.452;8.656;2023-12-29T01:38:52;10.48;;;6.53;;
1765;SDS011;880;52.452;8.656;2023-12-29T01:41:19;7.95;;;6.68;;
1765;SDS011;880;52.452;8.656;2023-12-29T01:46:29;10.88;;;7.03;;
1765;SDS011;880;52.452;8.656;2023-12-29T01:49:00;6.75;;;6.45;;
1765;SDS011;880;52.452;8.656;2023-12-29T01:51:27;6.63;;;6.07;;
1765;SDS011;880;52.452;8.656;2023-12-29T01:53:56;6.32;;;6.03;;
1765;SDS011;880;52.452;8.656;2023-12-29T01:56:24;8.40;;;7.95;;
1765;SDS011;880;52.452;8.656;2023-12-29T01:58:52;5.78;;;5.43;;
1765;SDS011;880;52.452;8.656;2023-12-29T02:01:34;6.90;;;6.43;;
1765;SDS011;880;52.452;8.656;2023-12-29T02:04:03;7.72;;;7.32;;
1765;SDS011;880;52.452;8.656;2023-12-29T02:06:30;7.15;;;5.90;;
1765;SDS011;880;52.452;8.656;2023-12-29T02:08:58;6.03;;;5.63;;
1765;SDS011;880;52.452;8.656;2023-12-29T02:11:25;7.03;;;6.72;;
1765;SDS011;880;52.452;8.656;2023-12-29T02:13:52;7.82;;;7.45;;
1765;SDS011;880;52.452;8.656;2023-12-29T02:16:23;8.00;;;7.40;;
1765;SDS011;880;52.452;8.656;2023-12-29T02:19:38;6.43;;;6.13;;
1765;SDS011;880;52.452;8.656;2023-12-29T02:22:13;7.18;;;6.43;;
1765;SDS011;880;52.452;8.656;2023-12-29T02:24:50;8.80;;;6.15;;
1765;SDS011;880;52.452;8.656;2023-12-29T02:30:06;6.35;;;5.97;;
1765;SDS011;880;52.452;8.656;2023-12-29T02:32:54;6.10;;;5.68;;
1765;SDS011;880;52.452;8.656;2023-12-29T02:35:27;8.20;;;7.72;;
1765;SDS011;880;52.452;8.656;2023-12-29T02:37:59;6.60;;;6.30;;
1765;SDS011;880;52.452;8.656;2023-12-29T02:40:27;7.05;;;6.65;;
1765;SDS011;880;52.452;8.656;2023-12-29T02:42:54;6.15;;;5.70;;
1765;SDS011;880;52.452;8.656;2023-12-29T02:45:22;6.22;;;5.93;;
1765;SDS011;880;52.452;8.656;2023-12-29T02:47:49;6.88;;;6.38;;
1765;SDS011;880;52.452;8.656;2023-12-29T02:50:17;6.72;;;6.43;;
1765;SDS011;880;52.452;8.656;2023-12-29T02:52:44;8.13;;;7.68;;
1765;SDS011;880;52.452;8.656;2023-12-29T02:55:11;6.55;;;6.15;;
1765;SDS011;880;52.452;8.656;2023-12-29T02:57:39;8.73;;;8.43;;
1765;SDS011;880;52.452;8.656;2023-12-29T03:00:06;6.45;;;6.05;;
1765;SDS011;880;52.452;8.656;2023-12-29T03:02:34;15.02;;;7.18;;
1765;SDS011;880;52.452;8.656;2023-12-29T03:05:02;9.95;;;8.82;;
1765;SDS011;880;52.452;8.656;2023-12-29T03:07:30;7.60;;;7.28;;
1765;SDS011;880;52.452;8.656;2023-12-29T03:09:57;6.15;;;5.75;;
1765;SDS011;880;52.452;8.656;2023-12-29T03:12:24;7.50;;;7.10;;
1765;SDS011;880;52.452;8.656;2023-12-29T03:14:51;5.90;;;5.57;;
1765;SDS011;880;52.452;8.656;2023-12-29T03:17:18;5.95;;;5.45;;
1765;SDS011;880;52.452;8.656;2023-12-29T03:19:45;8.05;;;7.55;;
1765;SDS011;880;52.452;8.656;2023-12-29T03:22:12;8.15;;;7.60;;
1765;SDS011;880;52.452;8.656;2023-12-29T03:24:40;7.65;;;7.35;;
1765;SDS011;880;52.452;8.656;2023-12-29T03:27:09;8.07;;;7.78;;
1765;SDS011;880;52.452;8.656;2023-12-29T03:29:36;5.85;;;5.65;;
1765;SDS011;880;52.452;8.656;2023-12-29T03:32:03;7.35;;;6.93;;
1765;SDS011;880;52.452;8.656;2023-12-29T03:34:31;6.50;;;6.13;;
1765;SDS011;880;52.452;8.656;2023-12-29T03:36:58;8.82;;;8.25;;
1765;SDS011;880;52.452;8.656;2023-12-29T03:39:25;8.98;;;8.57;;
1765;SDS011;880;52.452;8.656;2023-12-29T03:41:52;6.57;;;6.20;;
1765;SDS011;880;52.452;8.656;2023-12-29T03:44:21;8.00;;;7.50;;
1765;SDS011;880;52.452;8.656;2023-12-29T03:46:48;9.07;;;8.50;;
1765;SDS011;880;52.452;8.656;2023-12-29T03:49:16;8.00;;;7.57;;
1765;SDS011;880;52.452;8.656;2023-12-29T03:51:43;9.30;;;7.75;;
1765;SDS011;880;52.452;8.656;2023-12-29T03:54:10;8.32;;;8.02;;
1765;SDS011;880;52.452;8.656;2023-12-29T03:56:38;9.13;;;8.43;;
1765;SDS011;880;52.452;8.656;2023-12-29T03:59:06;8.60;;;8.10;;
1765;SDS011;880;52.452;8.656;2023-12-29T04:01:33;8.43;;;8.02;;
1765;SDS011;880;52.452;8.656;2023-12-29T04:04:00;5.47;;;5.22;;
1765;SDS011;880;52.452;8.656;2023-12-29T04:06:28;7.22;;;6.85;;
1765;SDS011;880;52.452;8.656;2023-12-29T04:08:55;8.45;;;7.85;;
1765;SDS011;880;52.452;8.656;2023-12-29T04:11:23;8.48;;;8.13;;
1765;SDS011;880;52.452;8.656;2023-12-29T04:13:50;8.25;;;7.85;;
1765;SDS011;880;52.452;8.656;2023-12-29T04:16:17;7.78;;;7.47;;
1765;SDS011;880;52.452;8.656;2023-12-29T04:18:44;7.95;;;7.65;;
1765;SDS011;880;52.452;8.656;2023-12-29T04:21:15;9.13;;;8.52;;
1765;SDS011;880;52.452;8.656;2023-12-29T04:23:42;9.00;;;8.50;;
1765;SDS011;880;52.452;8.656;2023-12-29T04:26:09;10.65;;;9.77;;
1765;SDS011;880;52.452;8.656;2023-12-29T04:28:36;8.27;;;7.88;;
1765;SDS011;880;52.452;8.656;2023-12-29T04:31:03;8.05;;;7.75;;
1765;SDS011;880;52.452;8.656;2023-12-29T04:33:30;8.13;;;7.70;;
1765;SDS011;880;52.452;8.656;2023-12-29T04:35:57;9.27;;;8.63;;
1765;SDS011;880;52.452;8.656;2023-12-29T04:38:24;9.10;;;8.45;;
1765;SDS011;880;52.452;8.656;2023-12-29T04:40:51;7.90;;;7.38;;
1765;SDS011;880;52.452;8.656;2023-12-29T04:43:18;8.27;;;7.82;;
1765;SDS011;880;52.452;8.656;2023-12-29T04:45:45;8.63;;;8.23;;
1765;SDS011;880;52.452;8.656;2023-12-29T04:48:12;9.27;;;8.63;;
1765;SDS011;880;52.452;8.656;2023-12-29T04:50:39;6.75;;;6.25;;
1765;SDS011;880;52.452;8.656;2023-12-29T04:53:06;6.50;;;6.20;;
1765;SDS011;880;52.452;8.656;2023-12-29T04:55:33;8.20;;;7.80;;
1765;SDS011;880;52.452;8.656;2023-12-29T04:58:00;7.63;;;7.32;;
1765;SDS011;880;52.452;8.656;2023-12-29T05:00:28;9.20;;;8.52;;
1765;SDS011;880;52.452;8.656;2023-12-29T05:02:55;9.57;;;8.88;;
1765;SDS011;880;52.452;8.656;2023-12-29T05:05:22;10.18;;;9.48;;
1765;SDS011;880;52.452;8.656;2023-12-29T05:07:49;8.43;;;7.95;;
1765;SDS011;880;52.452;8.656;2023-12-29T05:10:16;7.13;;;6.53;;
1765;SDS011;880;52.452;8.656;2023-12-29T05:12:43;7.65;;;7.15;;
1765;SDS011;880;52.452;8.656;2023-12-29T05:15:10;11.25;;;10.50;;
1765;SDS011;880;52.452;8.656;2023-12-29T05:17:37;7.30;;;6.88;;
1765;SDS011;880;52.452;8.656;2023-12-29T05:20:06;8.65;;;8.25;;
1765;SDS011;880;52.452;8.656;2023-12-29T05:22:34;11.27;;;10.65;;
1765;SDS011;880;52.452;8.656;2023-12-29T05:25:01;6.68;;;6.28;;
1765;SDS011;880;52.452;8.656;2023-12-29T05:27:30;11.55;;;10.07;;
1765;SDS011;880;52.452;8.656;2023-12-29T05:29:58;13.55;;;7.85;;
1765;SDS011;880;52.452;8.656;2023-12-29T05:32:25;9.07;;;8.38;;
1765;SDS011;880;52.452;8.656;2023-12-29T05:34:53;10.05;;;8.43;;
1765;SDS011;880;52.452;8.656;2023-12-29T05:37:20;8.52;;;8.13;;
1765;SDS011;880;52.452;8.656;2023-12-29T05:39:47;8.50;;;7.88;;
1765;SDS011;880;52.452;8.656;2023-12-29T05:42:14;11.32;;;10.40;;
1765;SDS011;880;52.452;8.656;2023-12-29T05:44:41;11.80;;;10.73;;
1765;SDS011;880;52.452;8.656;2023-12-29T05:47:09;10.48;;;10.05;;
1765;SDS011;880;52.452;8.656;2023-12-29T05:49:36;9.80;;;9.40;;
1765;SDS011;880;52.452;8.656;2023-12-29T05:52:06;7.75;;;7.35;;
1765;SDS011;880;52.452;8.656;2023-12-29T05:54:33;9.43;;;8.60;;
1765;SDS011;880;52.452;8.656;2023-12-29T05:57:01;11.15;;;10.10;;
1765;SDS011;880;52.452;8.656;2023-12-29T05:59:28;8.88;;;8.48;;
1765;SDS011;880;52.452;8.656;2023-12-29T06:01:55;8.68;;;8.13;;
1765;SDS011;880;52.452;8.656;2023-12-29T06:04:23;11.05;;;9.98;;
1765;SDS011;880;52.452;8.656;2023-12-29T06:06:50;7.97;;;7.57;;
1765;SDS011;880;52.452;8.656;2023-12-29T06:09:17;7.93;;;7.20;;
1765;SDS011;880;52.452;8.656;2023-12-29T06:11:44;8.95;;;7.93;;
1765;SDS011;880;52.452;8.656;2023-12-29T06:14:12;7.47;;;7.15;;
1765;SDS011;880;52.452;8.656;2023-12-29T06:16:39;7.63;;;6.85;;
1765;SDS011;880;52.452;8.656;2023-12-29T06:19:06;8.27;;;7.63;;
1765;SDS011;880;52.452;8.656;2023-12-29T06:21:40;10.27;;;7.43;;
1765;SDS011;880;52.452;8.656;2023-12-29T06:24:10;7.53;;;6.82;;
1765;SDS011;880;52.452;8.656;2023-12-29T06:26:37;8.45;;;7.65;;
1765;SDS011;880;52.452;8.656;2023-12-29T06:29:10;7.20;;;6.80;;
1765;SDS011;880;52.452;8.656;2023-12-29T06:31:39;8.05;;;7.43;;
1765;SDS011;880;52.452;8.656;2023-12-29T06:34:09;8.27;;;7.63;;
1765;SDS011;880;52.452;8.656;2023-12-29T06:36:36;10.20;;;9.48;;
1765;SDS011;880;52.452;8.656;2023-12-29T06:39:03;7.50;;;7.07;;
1765;SDS011;880;52.452;8.656;2023-12-29T06:41:30;9.27;;;6.63;;
1765;SDS011;880;52.452;8.656;2023-12-29T06:43:57;8.55;;;7.85;;
1765;SDS011;880;52.452;8.656;2023-12-29T06:46:24;9.73;;;9.23;;
1765;SDS011;880;52.452;8.656;2023-12-29T06:48:51;8.63;;;8.32;;
1765;SDS011;880;52.452;8.656;2023-12-29T06:51:19;17.25;;;10.02;;
1765;SDS011;880;52.452;8.656;2023-12-29T06:53:46;9.30;;;8.40;;
1765;SDS011;880;52.452;8.656;2023-12-29T06:56:17;6.85;;;6.55;;
1765;SDS011;880;52.452;8.656;2023-12-29T06:58:44;8.65;;;8.23;;
1765;SDS011;880;52.452;8.656;2023-12-29T07:01:12;11.45;;;10.57;;
1765;SDS011;880;52.452;8.656;2023-12-29T07:03:39;11.57;;;10.43;;
1765;SDS011;880;52.452;8.656;2023-12-29T07:06:07;12.20;;;10.93;;
1765;SDS011;880;52.452;8.656;2023-12-29T07:08:35;11.10;;;10.60;;
1765;SDS011;880;52.452;8.656;2023-12-29T07:11:02;10.40;;;9.68;;
1765;SDS011;880;52.452;8.656;2023-12-29T07:13:29;10.30;;;9.60;;
1765;SDS011;880;52.452;8.656;2023-12-29T07:15:56;11.75;;;10.63;;
1765;SDS011;880;52.452;8.656;2023-12-29T07:18:23;11.80;;;11.30;;
1765;SDS011;880;52.452;8.656;2023-12-29T07:20:50;10.38;;;8.23;;
1765;SDS011;880;52.452;8.656;2023-12-29T07:23:17;11.68;;;10.98;;
1765;SDS011;880;52.452;8.656;2023-12-29T07:25:44;9.68;;;8.77;;
1765;SDS011;880;52.452;8.656;2023-12-29T07:28:13;11.95;;;11.25;;
1765;SDS011;880;52.452;8.656;2023-12-29T07:30:40;13.13;;;12.32;;
1765;SDS011;880;52.452;8.656;2023-12-29T07:33:07;9.75;;;9.13;;
1765;SDS011;880;52.452;8.656;2023-12-29T07:35:35;11.60;;;10.90;;
1765;SDS011;880;52.452;8.656;2023-12-29T07:38:02;9.90;;;9.30;;
1765;SDS011;880;52.452;8.656;2023-12-29T07:40:29;11.73;;;11.23;;
1765;SDS011;880;52.452;8.656;2023-12-29T07:42:56;11.63;;;10.48;;
1765;SDS011;880;52.452;8.656;2023-12-29T07:45:23;12.10;;;11.02;;
1765;SDS011;880;52.452;8.656;2023-12-29T07:47:50;11.93;;;11.20;;
1765;SDS011;880;52.452;8.656;2023-12-29T07:50:17;9.63;;;9.02;;
1765;SDS011;880;52.452;8.656;2023-12-29T07:52:44;14.52;;;10.88;;
1765;SDS011;880;52.452;8.656;2023-12-29T07:55:12;10.48;;;9.68;;
1765;SDS011;880;52.452;8.656;2023-12-29T07:57:39;10.18;;;8.10;;
1765;SDS011;880;52.452;8.656;2023-12-29T08:00:06;8.05;;;7.75;;
1765;SDS011;880;52.452;8.656;2023-12-29T08:02:40;11.88;;;11.02;;
1765;SDS011;880;52.452;8.656;2023-12-29T08:05:07;9.52;;;8.93;;
1765;SDS011;880;52.452;8.656;2023-12-29T08:07:37;10.75;;;10.18;;
1765;SDS011;880;52.452;8.656;2023-12-29T08:10:05;8.98;;;8.23;;
1765;SDS011;880;52.452;8.656;2023-12-29T08:12:33;12.23;;;11.63;;
1765;SDS011;880;52.452;8.656;2023-12-29T08:15:02;9.02;;;8.30;;
1765;SDS011;880;52.452;8.656;2023-12-29T08:17:30;8.27;;;7.85;;
1765;SDS011;880;52.452;8.656;2023-12-29T08:19:58;10.07;;;9.52;;
1765;SDS011;880;52.452;8.656;2023-12-29T08:22:25;12.80;;;11.50;;
1765;SDS011;880;52.452;8.656;2023-12-29T08:24:56;10.02;;;9.27;;
1765;SDS011;880;52.452;8.656;2023-12-29T08:27:23;12.20;;;11.32;;
1765;SDS011;880;52.452;8.656;2023-12-29T08:29:54;11.45;;;10.82;;
1765;SDS011;880;52.452;8.656;2023-12-29T08:32:21;9.23;;;8.55;;
1765;SDS011;880;52.452;8.656;2023-12-29T08:34:48;10.65;;;9.98;;
1765;SDS011;880;52.452;8.656;2023-12-29T08:37:16;9.48;;;8.85;;
1765;SDS011;880;52.452;8.656;2023-12-29T08:39:46;9.32;;;8.10;;
1765;SDS011;880;52.452;8.656;2023-12-29T08:42:14;8.50;;;8.02;;
1765;SDS011;880;52.452;8.656;2023-12-29T08:44:42;8.70;;;8.00;;
1765;SDS011;880;52.452;8.656;2023-12-29T08:47:09;8.30;;;7.95;;
1765;SDS011;880;52.452;8.656;2023-12-29T08:49:36;9.40;;;8.80;;
1765;SDS011;880;52.452;8.656;2023-12-29T08:52:04;8.75;;;8.25;;
1765;SDS011;880;52.452;8.656;2023-12-29T08:54:32;11.20;;;10.32;;
1765;SDS011;880;52.452;8.656;2023-12-29T08:56:59;10.45;;;8.90;;
1765;SDS011;880;52.452;8.656;2023-12-29T08:59:26;11.63;;;10.68;;
1765;SDS011;880;52.452;8.656;2023-12-29T09:01:54;9.45;;;8.85;;
1765;SDS011;880;52.452;8.656;2023-12-29T09:04:22;8.85;;;8.27;;
1765;SDS011;880;52.452;8.656;2023-12-29T09:06:49;8.57;;;8.13;;
1765;SDS011;880;52.452;8.656;2023-12-29T09:09:16;10.85;;;10.32;;
1765;SDS011;880;52.452;8.656;2023-12-29T09:11:43;10.65;;;10.15;;
1765;SDS011;880;52.452;8.656;2023-12-29T09:14:12;9.00;;;8.20;;
1765;SDS011;880;52.452;8.656;2023-12-29T09:16:39;8.38;;;7.97;;
1765;SDS011;880;52.452;8.656;2023-12-29T09:19:10;9.82;;;9.43;;
1765;SDS011;880;52.452;8.656;2023-12-29T09:21:40;9.23;;;8.82;;
1765;SDS011;880;52.452;8.656;2023-12-29T09:24:07;9.50;;;9.00;;
1765;SDS011;880;52.452;8.656;2023-12-29T09:26:34;11.65;;;10.85;;
1765;SDS011;880;52.452;8.656;2023-12-29T09:29:01;9.48;;;8.85;;
1765;SDS011;880;52.452;8.656;2023-12-29T09:31:28;11.10;;;10.43;;
1765;SDS011;880;52.452;8.656;2023-12-29T09:33:55;11.27;;;10.77;;
1765;SDS011;880;52.452;8.656;2023-12-29T09:36:23;11.40;;;10.80;;
1765;SDS011;880;52.452;8.656;2023-12-29T09:38:50;9.48;;;8.93;;
1765;SDS011;880;52.452;8.656;2023-12-29T09:41:17;11.20;;;10.70;;
1765;SDS011;880;52.452;8.656;2023-12-29T09:43:48;11.60;;;10.98;;
1765;SDS011;880;52.452;8.656;2023-12-29T09:46:19;9.35;;;8.90;;
1765;SDS011;880;52.452;8.656;2023-12-29T09:48:48;9.38;;;8.98;;
1765;SDS011;880;52.452;8.656;2023-12-29T09:51:20;11.07;;;10.57;;
1765;SDS011;880;52.452;8.656;2023-12-29T09:53:50;8.32;;;8.02;;
1765;SDS011;880;52.452;8.656;2023-12-29T09:56:18;11.88;;;10.88;;
1765;SDS011;880;52.452;8.656;2023-12-29T09:58:46;8.65;;;8.00;;
1765;SDS011;880;52.452;8.656;2023-12-29T10:01:14;11.73;;;10.70;;
1765;SDS011;880;52.452;8.656;2023-12-29T10:03:46;10.13;;;9.70;;
1765;SDS011;880;52.452;8.656;2023-12-29T10:06:16;11.70;;;10.98;;
1765;SDS011;880;52.452;8.656;2023-12-29T10:08:47;8.70;;;8.18;;
1765;SDS011;880;52.452;8.656;2023-12-29T10:11:18;11.25;;;10.75;;
1765;SDS011;880;52.452;8.656;2023-12-29T10:13:49;10.73;;;10.13;;
1765;SDS011;880;52.452;8.656;2023-12-29T10:16:38;7.50;;;7.20;;
1765;SDS011;880;52.452;8.656;2023-12-29T10:24:58;11.80;;;11.10;;
1765;SDS011;880;52.452;8.656;2023-12-29T10:27:26;10.43;;;9.60;;
1765;SDS011;880;52.452;8.656;2023-12-29T10:29:53;11.30;;;10.15;;
1765;SDS011;880;52.452;8.656;2023-12-29T10:32:20;8.15;;;7.63;;
1765;SDS011;880;52.452;8.656;2023-12-29T10:34:47;8.32;;;8.02;;
1765;SDS011;880;52.452;8.656;2023-12-29T10:37:14;10.05;;;9.43;;
1765;SDS011;880;52.452;8.656;2023-12-29T10:39:55;6.70;;;6.40;;
1765;SDS011;880;52.452;8.656;2023-12-29T10:42:23;10.07;;;9.60;;
1765;SDS011;880;52.452;8.656;2023-12-29T10:44:53;12.85;;;11.50;;
1765;SDS011;880;52.452;8.656;2023-12-29T10:47:36;12.15;;;11.23;;
1765;SDS011;880;52.452;8.656;2023-12-29T10:50:04;11.93;;;11.23;;
1765;SDS011;880;52.452;8.656;2023-12-29T10:52:32;9.80;;;9.20;;
1765;SDS011;880;52.452;8.656;2023-12-29T10:55:06;10.57;;;10.07;;
1765;SDS011;880;52.452;8.656;2023-12-29T10:57:36;12.15;;;11.40;;
1765;SDS011;880;52.452;8.656;2023-12-29T11:00:04;9.65;;;8.95;;
1765;SDS011;880;52.452;8.656;2023-12-29T11:02:34;11.02;;;10.35;;
1765;SDS011;880;52.452;8.656;2023-12-29T11:05:05;10.45;;;9.95;;
1765;SDS011;880;52.452;8.656;2023-12-29T11:07:34;11.30;;;10.77;;
1765;SDS011;880;52.452;8.656;2023-12-29T11:10:07;11.88;;;10.75;;
1765;SDS011;880;52.452;8.656;2023-12-29T11:12:36;10.95;;;10.35;;
1765;SDS011;880;52.452;8.656;2023-12-29T11:15:05;9.23;;;8.63;;
1765;SDS011;880;52.452;8.656;2023-12-29T11:17:34;11.07;;;10.48;;
1765;SDS011;880;52.452;8.656;2023-12-29T11:20:03;8.63;;;8.13;;
1765;SDS011;880;52.452;8.656;2023-12-29T11:22:31;11.65;;;11.02;;
1765;SDS011;880;52.452;8.656;2023-12-29T11:24:59;14.07;;;13.13;;
1765;SDS011;880;52.452;8.656;2023-12-29T11:27:28;12.15;;;11.32;;
1765;SDS011;880;52.452;8.656;2023-12-29T11:29:57;10.40;;;9.90;;
1765;SDS011;880;52.452;8.656;2023-12-29T11:35:32;13.45;;;12.65;;
1765;SDS011;880;52.452;8.656;2023-12-29T11:41:00;9.68;;;9.27;;
1765;SDS011;880;52.452;8.656;2023-12-29T11:43:57;11.10;;;10.50;;
1765;SDS011;880;52.452;8.656;2023-12-29T11:46:35;12.27;;;11.68;;
1765;SDS011;880;52.452;8.656;2023-12-29T11:49:04;12.68;;;12.13;;
1765;SDS011;880;52.452;8.656;2023-12-29T11:51:33;14.57;;;13.15;;
1765;SDS011;880;52.452;8.656;2023-12-29T11:54:10;13.45;;;12.65;;
1765;SDS011;880;52.452;8.656;2023-12-29T11:56:54;10.38;;;9.93;;
1765;SDS011;880;52.452;8.656;2023-12-29T12:01:50;12.15;;;11.55;;
1765;SDS011;880;52.452;8.656;2023-12-29T12:04:33;13.18;;;12.57;;
1765;SDS011;880;52.452;8.656;2023-12-29T12:07:04;11.65;;;10.65;;
1765;SDS011;880;52.452;8.656;2023-12-29T12:09:31;10.38;;;9.98;;
1765;SDS011;880;52.452;8.656;2023-12-29T12:12:02;13.40;;;12.55;;
1765;SDS011;880;52.452;8.656;2023-12-29T12:17:28;10.85;;;10.35;;
1765;SDS011;880;52.452;8.656;2023-12-29T12:20:04;11.57;;;10.68;;
1765;SDS011;880;52.452;8.656;2023-12-29T12:25:05;13.40;;;12.63;;
1765;SDS011;880;52.452;8.656;2023-12-29T12:27:34;11.02;;;10.63;;
1765;SDS011;880;52.452;8.656;2023-12-29T12:30:04;10.05;;;9.65;;
1765;SDS011;880;52.452;8.656;2023-12-29T12:32:32;11.98;;;11.50;;
1765;SDS011;880;52.452;8.656;2023-12-29T12:34:59;11.13;;;10.52;;
1765;SDS011;880;52.452;8.656;2023-12-29T12:37:29;13.07;;;12.27;;
1765;SDS011;880;52.452;8.656;2023-12-29T12:39:56;12.25;;;11.75;;
1765;SDS011;880;52.452;8.656;2023-12-29T12:42:24;10.48;;;9.98;;
1765;SDS011;880;52.452;8.656;2023-12-29T12:47:45;9.52;;;9.18;;
1765;SDS011;880;52.452;8.656;2023-12-29T12:50:18;10.05;;;9.65;;
1765;SDS011;880;52.452;8.656;2023-12-29T12:52:45;11.90;;;11.40;;
1765;SDS011;880;52.452;8.656;2023-12-29T12:55:12;10.10;;;9.48;;
1765;SDS011;880;52.452;8.656;2023-12-29T12:57:40;9.95;;;9.50;;
1765;SDS011;880;52.452;8.656;2023-12-29T13:00:11;10.10;;;9.60;;
1765;SDS011;880;52.452;8.656;2023-12-29T13:02:40;9.52;;;9.13;;
1765;SDS011;880;52.452;8.656;2023-12-29T13:05:07;9.68;;;9.27;;
1765;SDS011;880;52.452;8.656;2023-12-29T13:07:35;9.52;;;9.18;;
1765;SDS011;880;52.452;8.656;2023-12-29T13:10:02;12.25;;;11.75;;
1765;SDS011;880;52.452;8.656;2023-12-29T13:12:30;9.15;;;8.85;;
1765;SDS011;880;52.452;8.656;2023-12-29T13:15:09;9.13;;;8.82;;
1765;SDS011;880;52.452;8.656;2023-12-29T13:17:36;9.55;;;9.15;;
1765;SDS011;880;52.452;8.656;2023-12-29T13:20:03;9.95;;;9.52;;
1765;SDS011;880;52.452;8.656;2023-12-29T13:22:32;8.85;;;8.55;;
1765;SDS011;880;52.452;8.656;2023-12-29T13:25:00;9.23;;;8.82;;
1765;SDS011;880;52.452;8.656;2023-12-29T13:27:31;11.80;;;11.30;;
1765;SDS011;880;52.452;8.656;2023-12-29T13:29:58;9.25;;;8.77;;
1765;SDS011;880;52.452;8.656;2023-12-29T13:32:26;11.43;;;10.90;;
1765;SDS011;880;52.452;8.656;2023-12-29T13:34:58;11.27;;;10.63;;
1765;SDS011;880;52.452;8.656;2023-12-29T13:37:46;11.13;;;10.65;;
1765;SDS011;880;52.452;8.656;2023-12-29T13:40:42;10.77;;;10.30;;
1765;SDS011;880;52.452;8.656;2023-12-29T13:43:23;9.25;;;8.52;;
1765;SDS011;880;52.452;8.656;2023-12-29T13:45:50;10.68;;;10.27;;
1765;SDS011;880;52.452;8.656;2023-12-29T13:48:18;10.50;;;9.95;;
1765;SDS011;880;52.452;8.656;2023-12-29T13:50:46;9.98;;;9.57;;
1765;SDS011;880;52.452;8.656;2023-12-29T13:53:21;10.90;;;10.40;;
1765;SDS011;880;52.452;8.656;2023-12-29T13:55:51;8.07;;;7.75;;
1765;SDS011;880;52.452;8.656;2023-12-29T13:58:18;9.77;;;9.38;;
1765;SDS011;880;52.452;8.656;2023-12-29T14:00:45;10.50;;;10.10;;
1765;SDS011;880;52.452;8.656;2023-12-29T14:03:23;11.60;;;11.10;;
1765;SDS011;880;52.452;8.656;2023-12-29T14:06:03;10.52;;;9.75;;
1765;SDS011;880;52.452;8.656;2023-12-29T14:08:41;8.20;;;7.90;;
1765;SDS011;880;52.452;8.656;2023-12-29T14:11:14;10.27;;;9.88;;
1765;SDS011;880;52.452;8.656;2023-12-29T14:13:41;11.25;;;10.75;;
1765;SDS011;880;52.452;8.656;2023-12-29T14:16:09;11.95;;;11.13;;
1765;SDS011;880;52.452;8.656;2023-12-29T14:21:27;11.25;;;10.85;;
1765;SDS011;880;52.452;8.656;2023-12-29T14:24:06;11.93;;;11.43;;
1765;SDS011;880;52.452;8.656;2023-12-29T14:26:36;11.32;;;10.93;;
1765;SDS011;880;52.452;8.656;2023-12-29T14:29:08;9.50;;;9.10;;
1765;SDS011;880;52.452;8.656;2023-12-29T14:31:40;11.60;;;11.00;;
1765;SDS011;880;52.452;8.656;2023-12-29T14:34:09;12.50;;;11.70;;
1765;SDS011;880;52.452;8.656;2023-12-29T14:36:39;11.63;;;11.05;;
1765;SDS011;880;52.452;8.656;2023-12-29T14:39:07;11.07;;;10.65;;
1765;SDS011;880;52.452;8.656;2023-12-29T14:41:38;11.50;;;11.00;;
1765;SDS011;880;52.452;8.656;2023-12-29T14:44:05;11.63;;;11.13;;
1765;SDS011;880;52.452;8.656;2023-12-29T14:46:33;11.80;;;11.30;;
1765;SDS011;880;52.452;8.656;2023-12-29T14:49:04;13.18;;;12.45;;
1765;SDS011;880;52.452;8.656;2023-12-29T14:51:31;9.63;;;9.13;;
1765;SDS011;880;52.452;8.656;2023-12-29T14:53:58;9.10;;;8.60;;
1765;SDS011;880;52.452;8.656;2023-12-29T14:56:26;10.20;;;9.70;;
1765;SDS011;880;52.452;8.656;2023-12-29T14:58:52;9.27;;;8.85;;
1765;SDS011;880;52.452;8.656;2023-12-29T15:01:19;10.00;;;9.40;;
1765;SDS011;880;52.452;8.656;2023-12-29T15:03:47;9.13;;;8.73;;
1765;SDS011;880;52.452;8.656;2023-12-29T15:06:14;11.10;;;10.63;;
1765;SDS011;880;52.452;8.656;2023-12-29T15:08:41;10.52;;;10.02;;
1765;SDS011;880;52.452;8.656;2023-12-29T15:11:08;8.38;;;8.02;;
1765;SDS011;880;52.452;8.656;2023-12-29T15:13:35;10.65;;;10.13;;
1765;SDS011;880;52.452;8.656;2023-12-29T15:16:03;9.20;;;8.77;;
1765;SDS011;880;52.452;8.656;2023-12-29T15:18:33;9.95;;;9.23;;
1765;SDS011;880;52.452;8.656;2023-12-29T15:21:01;10.40;;;9.93;;
1765;SDS011;880;52.452;8.656;2023-12-29T15:23:28;11.35;;;10.57;;
1765;SDS011;880;52.452;8.656;2023-12-29T15:25:55;10.85;;;10.13;;
1765;SDS011;880;52.452;8.656;2023-12-29T15:28:22;7.60;;;7.30;;
1765;SDS011;880;52.452;8.656;2023-12-29T15:30:50;10.00;;;9.60;;
1765;SDS011;880;52.452;8.656;2023-12-29T15:33:17;9.43;;;8.82;;
1765;SDS011;880;52.452;8.656;2023-12-29T15:35:45;8.43;;;7.97;;
1765;SDS011;880;52.452;8.656;2023-12-29T15:38:13;10.70;;;10.00;;
1765;SDS011;880;52.452;8.656;2023-12-29T15:40:40;10.57;;;10.05;;
1765;SDS011;880;52.452;8.656;2023-12-29T15:43:07;11.65;;;11.07;;
1765;SDS011;880;52.452;8.656;2023-12-29T15:45:34;11.90;;;11.30;;
1765;SDS011;880;52.452;8.656;2023-12-29T15:48:02;11.05;;;10.65;;
1765;SDS011;880;52.452;8.656;2023-12-29T15:50:30;9.68;;;9.13;;
1765;SDS011;880;52.452;8.656;2023-12-29T15:52:58;11.18;;;10.68;;
1765;SDS011;880;52.452;8.656;2023-12-29T15:55:25;11.35;;;10.75;;
1765;SDS011;880;52.452;8.656;2023-12-29T15:57:52;9.77;;;9.38;;
1765;SDS011;880;52.452;8.656;2023-12-29T16:00:19;11.52;;;10.93;;